Terminal Aerodrome Forecast
Issued by NWS

Home | Current Version | Previous Version | Text Only | Print | Product List | Glossary Off
Versions: 1 2 3 4 5 6 7 8 9 10 11 12 13 14 15 16 17 18 19

000
FTUS42 KMHX 200531
TAFPGV
TAF
KPGV 200531Z 2006/2106 19008KT 5SM SHRA BKN006 OVC015
      TEMPO 2006/2007 P6SM SCT006 BKN015
     FM201100 21008KT P6SM VCSH SCT006 BKN010
     FM201300 21009G15KT P6SM VCSH BKN035
     FM201700 21010G16KT P6SM BKN045
      AMD LTD TO CLD VIS AND WIND=

USA.gov is the U.S. government's official web portal to all federal, state and local government web resources and services.